createdAt,value
2022-09-14T00:01:25.754Z,3.42
2022-09-14T00:04:02.313Z,2.60
2022-09-14T00:06:30.602Z,3.17
2022-09-14T00:08:58.933Z,3.53
2022-09-14T00:11:27.659Z,4.15
2022-09-14T00:13:56.327Z,4.70
2022-09-14T00:16:27.281Z,4.60
2022-09-14T00:18:56.506Z,4.30
2022-09-14T00:21:24.383Z,3.50
2022-09-14T00:23:51.487Z,4.80
2022-09-14T00:26:21.386Z,3.55
2022-09-14T00:28:54.209Z,2.97
2022-09-14T00:31:22.718Z,2.92
2022-09-14T00:33:51.301Z,2.80
2022-09-14T00:36:24.247Z,3.38
2022-09-14T00:38:51.891Z,4.40
2022-09-14T00:41:23.369Z,4.43
2022-09-14T00:44:02.407Z,4.28
2022-09-14T00:46:31.721Z,4.07
2022-09-14T00:49:03.082Z,3.65
2022-09-14T00:54:00.841Z,3.70
2022-09-14T00:56:27.648Z,3.55
2022-09-14T00:58:57.845Z,3.90
2022-09-14T01:01:27.034Z,3.92
2022-09-14T01:03:53.934Z,4.72
2022-09-14T01:06:59.912Z,4.95
2022-09-14T01:09:43.604Z,3.95
2022-09-14T01:12:34.902Z,4.50
2022-09-14T01:15:20.462Z,3.90
2022-09-14T01:17:53.326Z,3.80
2022-09-14T01:20:45.690Z,4.80
2022-09-14T01:23:27.958Z,5.60
2022-09-14T01:26:50.398Z,4.63
2022-09-14T01:29:39.154Z,4.63
2022-09-14T01:32:53.396Z,5.28
2022-09-14T01:35:31.863Z,4.43
2022-09-14T01:38:04.975Z,4.40
2022-09-14T01:40:34.555Z,3.65
2022-09-14T01:43:10.948Z,4.60
2022-09-14T01:45:42.495Z,4.63
2022-09-14T01:48:12.764Z,5.00
2022-09-14T01:50:41.572Z,4.18
2022-09-14T01:53:30.445Z,4.03
2022-09-14T01:56:15.424Z,2.90
2022-09-14T01:58:55.170Z,3.25
2022-09-14T02:01:32.016Z,3.05
2022-09-14T02:04:03.496Z,4.03
2022-09-14T02:06:37.884Z,5.45
2022-09-14T02:09:07.011Z,4.07
2022-09-14T02:11:33.801Z,10.27
2022-09-14T02:14:00.696Z,2.70
2022-09-14T02:16:27.952Z,3.40
2022-09-14T02:18:55.042Z,4.10
2022-09-14T02:21:26.435Z,4.15
2022-09-14T02:26:23.046Z,3.03
2022-09-14T02:28:50.234Z,2.92
2022-09-14T02:31:29.098Z,3.97
2022-09-14T02:34:11.049Z,3.30
2022-09-14T02:36:56.684Z,3.17
2022-09-14T02:39:40.585Z,2.75
2022-09-14T02:42:31.397Z,3.28
2022-09-14T02:45:06.731Z,4.00
2022-09-14T02:47:45.927Z,5.88
2022-09-14T02:50:31.516Z,2.50
2022-09-14T02:53:10.348Z,3.65
2022-09-14T02:55:42.930Z,3.38
2022-09-14T02:58:12.664Z,5.13
2022-09-14T03:00:42.949Z,5.10
2022-09-14T03:03:11.770Z,5.57
2022-09-14T03:05:38.969Z,3.85
2022-09-14T03:08:06.184Z,3.72
2022-09-14T03:10:33.767Z,3.45
2022-09-14T03:13:01.073Z,3.20
2022-09-14T03:15:28.344Z,2.70
2022-09-14T03:17:55.568Z,2.03
2022-09-14T03:20:26.210Z,2.38
2022-09-14T03:22:53.014Z,2.30
2022-09-14T03:25:20.498Z,1.85
2022-09-14T03:27:51.559Z,2.15
2022-09-14T03:30:19.633Z,2.10
2022-09-14T03:32:47.016Z,2.05
2022-09-14T03:35:15.946Z,1.95
2022-09-14T03:37:44.668Z,1.65
2022-09-14T03:40:15.158Z,1.95
2022-09-14T03:42:46.792Z,2.17
2022-09-14T03:45:15.111Z,2.08
2022-09-14T03:47:42.179Z,2.05
2022-09-14T03:50:10.532Z,2.22
2022-09-14T03:52:37.941Z,3.28
2022-09-14T03:55:06.725Z,3.58
2022-09-14T03:57:34.072Z,2.75
2022-09-14T04:00:00.867Z,2.75
2022-09-14T04:02:29.645Z,2.53
2022-09-14T04:04:56.452Z,2.03
2022-09-14T04:07:23.290Z,1.98
2022-09-14T04:09:50.166Z,2.60
2022-09-14T04:12:16.934Z,3.10
2022-09-14T04:14:43.676Z,2.42
2022-09-14T04:17:10.484Z,2.83
2022-09-14T04:19:41.639Z,3.10
2022-09-14T04:22:08.726Z,3.08
2022-09-14T04:24:35.972Z,2.60
2022-09-14T04:27:02.775Z,2.60
2022-09-14T04:29:30.768Z,2.45
2022-09-14T04:31:58.160Z,2.40
2022-09-14T04:34:25.043Z,2.88
2022-09-14T04:36:52.241Z,2.50
2022-09-14T04:39:19.722Z,2.22
2022-09-14T04:41:46.882Z,2.33
2022-09-14T04:44:14.018Z,2.45
2022-09-14T04:46:46.478Z,4.00
2022-09-14T04:49:16.024Z,4.20
2022-09-14T04:51:42.946Z,4.00
2022-09-14T04:54:13.170Z,4.57
2022-09-14T04:56:39.962Z,3.55
2022-09-14T04:59:06.815Z,2.67
2022-09-14T05:01:38.149Z,2.08
2022-09-14T05:04:06.516Z,2.50
2022-09-14T05:06:35.522Z,3.10
2022-09-14T05:09:04.835Z,3.30
2022-09-14T05:11:35.667Z,3.33
2022-09-14T05:14:03.402Z,3.40
2022-09-14T05:16:37.516Z,3.53
2022-09-14T05:19:07.085Z,3.95
2022-09-14T05:21:36.441Z,3.97
2022-09-14T05:24:06.812Z,3.42
2022-09-14T05:26:33.990Z,3.88
2022-09-14T05:29:02.166Z,3.47
2022-09-14T05:31:29.733Z,3.33
2022-09-14T05:33:57.294Z,3.63
2022-09-14T05:36:25.254Z,3.85
2022-09-14T05:38:52.187Z,4.03
2022-09-14T05:41:19.135Z,3.88
2022-09-14T05:43:46.201Z,4.00
2022-09-14T05:46:15.388Z,4.63
2022-09-14T05:48:42.782Z,5.35
2022-09-14T05:51:17.840Z,5.15
2022-09-14T05:53:51.796Z,5.32
2022-09-14T05:56:20.217Z,5.53
2022-09-14T05:58:47.709Z,5.40
2022-09-14T06:01:20.465Z,5.50
2022-09-14T06:03:48.364Z,4.95
2022-09-14T06:06:17.870Z,4.95
2022-09-14T06:08:45.313Z,5.05
2022-09-14T06:11:16.539Z,4.60
2022-09-14T06:13:44.005Z,4.05
2022-09-14T06:16:13.895Z,4.45
2022-09-14T06:18:41.966Z,4.50
2022-09-14T06:21:10.064Z,4.80
2022-09-14T06:23:37.283Z,4.45
2022-09-14T06:26:05.619Z,4.35
2022-09-14T06:28:33.474Z,4.18
2022-09-14T06:31:00.384Z,4.88
2022-09-14T06:33:27.440Z,4.45
2022-09-14T06:35:58.599Z,4.38
2022-09-14T06:38:26.522Z,4.43
2022-09-14T06:40:56.075Z,4.57
2022-09-14T06:43:24.670Z,5.15
2022-09-14T06:46:05.336Z,5.50
2022-09-14T06:48:35.547Z,5.13
2022-09-14T06:51:12.504Z,4.72
2022-09-14T06:53:39.334Z,4.68
2022-09-14T06:56:06.121Z,4.25
2022-09-14T06:58:34.368Z,3.80
2022-09-14T07:01:15.002Z,5.05
2022-09-14T07:03:44.144Z,5.77
2022-09-14T07:06:17.052Z,5.38
2022-09-14T07:08:44.539Z,5.30
2022-09-14T07:11:13.269Z,4.88
2022-09-14T07:13:40.435Z,4.90
2022-09-14T07:16:08.338Z,4.82
2022-09-14T07:18:35.636Z,5.70
2022-09-14T07:21:06.894Z,6.10
2022-09-14T07:23:36.405Z,6.22
2022-09-14T07:26:12.432Z,5.63
2022-09-14T07:28:40.544Z,5.20
2022-09-14T07:31:19.123Z,5.00
2022-09-14T07:33:46.392Z,4.03
2022-09-14T07:36:14.088Z,4.20
2022-09-14T07:38:52.571Z,4.22
2022-09-14T07:41:29.866Z,4.10
2022-09-14T07:44:00.642Z,4.10
2022-09-14T07:46:34.918Z,3.92
2022-09-14T07:49:03.465Z,3.88
2022-09-14T07:51:31.409Z,4.15
2022-09-14T07:54:00.937Z,3.25
2022-09-14T07:56:28.020Z,3.22
2022-09-14T07:59:17.141Z,3.42
2022-09-14T08:01:47.021Z,3.70
2022-09-14T08:04:13.977Z,3.63
2022-09-14T08:06:40.893Z,4.13
2022-09-14T08:09:11.128Z,4.05
2022-09-14T08:11:38.329Z,4.10
2022-09-14T08:14:10.460Z,3.63
2022-09-14T08:16:39.074Z,3.40
2022-09-14T08:19:12.349Z,3.63
2022-09-14T08:21:44.157Z,2.92
2022-09-14T08:24:18.511Z,2.90
2022-09-14T08:26:46.484Z,2.58
2022-09-14T08:29:14.212Z,3.20
2022-09-14T08:31:41.470Z,3.20
2022-09-14T08:34:08.861Z,3.50
2022-09-14T08:36:41.551Z,3.78
2022-09-14T08:39:10.850Z,3.45
2022-09-14T08:41:43.430Z,2.60
2022-09-14T08:44:18.248Z,2.63
2022-09-14T08:46:49.837Z,0.88
2022-09-14T08:49:44.405Z,0.50
2022-09-14T08:52:31.496Z,0.50
2022-09-14T08:55:01.968Z,0.30
2022-09-14T08:57:34.872Z,0.50
2022-09-14T09:00:13.731Z,0.55
2022-09-14T09:02:49.652Z,0.47
2022-09-14T09:05:33.684Z,0.50
2022-09-14T09:08:22.487Z,0.50
2022-09-14T09:10:52.506Z,0.70
2022-09-14T09:13:23.769Z,0.60
2022-09-14T09:15:54.270Z,0.50
2022-09-14T09:18:35.250Z,0.40
2022-09-14T09:21:08.570Z,0.70
2022-09-14T09:23:36.068Z,1.00
2022-09-14T09:26:32.081Z,1.08
2022-09-14T09:29:01.869Z,1.13
2022-09-14T09:31:40.415Z,1.20
2022-09-14T09:34:07.332Z,1.30
2022-09-14T09:36:37.400Z,1.40
2022-09-14T09:39:05.671Z,1.45
2022-09-14T09:41:45.327Z,1.90
2022-09-14T09:44:12.679Z,1.50
2022-09-14T09:46:47.639Z,1.45
2022-09-14T09:49:24.887Z,1.77
2022-09-14T09:51:53.532Z,1.98
2022-09-14T09:54:29.858Z,1.70
2022-09-14T09:57:14.912Z,1.50
2022-09-14T09:59:44.386Z,1.88
2022-09-14T10:02:31.395Z,1.70
2022-09-14T10:05:05.365Z,1.63
2022-09-14T10:07:34.956Z,1.75
2022-09-14T10:10:08.560Z,1.95
2022-09-14T10:12:38.114Z,1.58
2022-09-14T10:15:27.935Z,1.42
2022-09-14T10:18:13.296Z,1.85
2022-09-14T10:20:54.504Z,1.85
2022-09-14T10:23:28.102Z,1.90
2022-09-14T10:26:14.891Z,1.90
2022-09-14T10:28:49.635Z,1.90
2022-09-14T10:31:25.290Z,1.88
2022-09-14T10:33:56.598Z,1.77
2022-09-14T10:38:58.693Z,2.05
2022-09-14T10:41:41.817Z,2.13
2022-09-14T10:44:33.486Z,1.92
2022-09-14T10:47:34.466Z,1.67
2022-09-14T10:50:13.615Z,2.05
2022-09-14T10:53:14.535Z,1.58
2022-09-14T10:55:47.093Z,2.00
2022-09-14T10:58:44.900Z,2.05
2022-09-14T11:01:38.814Z,2.13
2022-09-14T11:04:24.412Z,1.80
2022-09-14T11:07:12.681Z,2.60
2022-09-14T11:10:23.988Z,2.17
2022-09-14T11:13:16.147Z,2.17
2022-09-14T11:16:03.890Z,2.20
2022-09-14T11:18:48.705Z,1.85
2022-09-14T11:21:42.012Z,2.65
2022-09-14T11:24:24.773Z,1.60
2022-09-14T11:27:15.935Z,2.20
2022-09-14T11:30:09.459Z,2.22
2022-09-14T11:33:09.317Z,2.20
2022-09-14T11:35:45.595Z,2.22
2022-09-14T11:38:20.798Z,1.73
2022-09-14T11:41:08.209Z,1.77
2022-09-14T11:44:01.402Z,2.80
2022-09-14T11:46:34.205Z,2.90
2022-09-14T11:49:40.097Z,2.10
2022-09-14T11:52:08.075Z,1.92
2022-09-14T11:54:35.415Z,2.58
2022-09-14T11:57:04.246Z,2.78
2022-09-14T11:59:41.540Z,2.50
2022-09-14T12:02:23.937Z,2.40
2022-09-14T12:05:06.106Z,2.28
2022-09-14T12:07:48.707Z,2.40
2022-09-14T12:10:18.572Z,2.67
2022-09-14T12:12:54.327Z,2.30
2022-09-14T12:15:27.464Z,2.28
2022-09-14T12:18:24.619Z,3.05
2022-09-14T12:21:01.808Z,2.38
2022-09-14T12:23:37.398Z,2.70
2022-09-14T12:26:14.026Z,2.20
2022-09-14T12:28:53.820Z,2.70
2022-09-14T12:31:44.166Z,2.45
2022-09-14T12:34:22.883Z,2.45
2022-09-14T12:36:49.735Z,2.28
2022-09-14T12:39:31.824Z,2.30
2022-09-14T12:42:17.252Z,1.75
2022-09-14T12:44:44.168Z,3.35
2022-09-14T12:47:26.098Z,2.53
2022-09-14T12:49:54.840Z,2.33
2022-09-14T12:52:32.009Z,2.30
2022-09-14T12:55:18.519Z,2.58
2022-09-14T12:58:06.857Z,2.40
2022-09-14T13:01:14.275Z,2.53
2022-09-14T13:03:48.683Z,2.55
2022-09-14T13:06:15.818Z,2.15
2022-09-14T13:08:49.077Z,2.67
2022-09-14T13:11:22.972Z,2.50
2022-09-14T13:13:50.923Z,2.33
2022-09-14T13:16:27.551Z,2.15
2022-09-14T13:19:01.732Z,2.47
2022-09-14T13:21:28.575Z,2.75
2022-09-14T13:23:55.407Z,2.40
2022-09-14T13:26:26.920Z,2.80
2022-09-14T13:28:55.595Z,2.03
2022-09-14T13:31:35.748Z,2.20
2022-09-14T13:34:04.746Z,2.40
2022-09-14T13:36:41.876Z,2.30
2022-09-14T13:39:24.650Z,2.30
2022-09-14T13:41:52.300Z,2.25
2022-09-14T13:44:26.823Z,2.38
2022-09-14T13:46:55.768Z,2.20
2022-09-14T13:49:22.977Z,2.22
2022-09-14T13:51:49.966Z,2.63
2022-09-14T13:54:29.920Z,2.63
2022-09-14T13:57:17.401Z,2.25
2022-09-14T14:00:18.026Z,2.50
2022-09-14T14:03:01.416Z,3.00
2022-09-14T14:05:35.165Z,2.22
2022-09-14T14:08:04.971Z,2.78
2022-09-14T14:10:37.698Z,3.03
2022-09-14T14:13:05.364Z,2.35
2022-09-14T14:15:41.948Z,3.05
2022-09-14T14:18:50.752Z,3.55
2022-09-14T14:21:28.769Z,2.97
2022-09-14T14:24:17.157Z,3.90
2022-09-14T14:26:56.133Z,6.45
2022-09-14T14:29:23.599Z,2.35
2022-09-14T14:31:50.727Z,2.50
2022-09-14T14:34:19.221Z,2.60
2022-09-14T14:36:48.111Z,2.10
2022-09-14T14:39:14.903Z,2.35
2022-09-14T14:41:42.107Z,2.72
2022-09-14T14:44:16.017Z,2.78
2022-09-14T14:46:43.164Z,3.03
2022-09-14T14:49:14.765Z,2.85
2022-09-14T14:51:41.972Z,2.53
2022-09-14T14:54:10.403Z,2.45
2022-09-14T14:56:40.368Z,2.80
2022-09-14T14:59:28.755Z,2.33
2022-09-14T15:01:56.531Z,2.42
2022-09-14T15:04:23.926Z,2.80
2022-09-14T15:06:51.081Z,2.60
2022-09-14T15:09:27.567Z,2.20
2022-09-14T15:11:55.067Z,2.13
2022-09-14T15:14:27.181Z,2.30
2022-09-14T15:16:59.803Z,2.10
2022-09-14T15:19:27.563Z,1.98
2022-09-14T15:21:58.606Z,2.13
2022-09-14T15:24:29.498Z,2.33
2022-09-14T15:26:56.437Z,2.55
2022-09-14T15:29:23.383Z,2.47
2022-09-14T15:31:50.663Z,2.63
2022-09-14T15:34:17.623Z,2.50
2022-09-14T15:36:54.855Z,2.30
2022-09-14T15:39:28.047Z,2.30
2022-09-14T15:41:55.931Z,4.93
2022-09-14T15:44:23.168Z,2.20
2022-09-14T15:46:51.862Z,2.13
2022-09-14T15:49:21.508Z,2.00
2022-09-14T15:51:50.869Z,1.75
2022-09-14T15:54:19.137Z,1.70
2022-09-14T15:56:50.715Z,1.77
2022-09-14T15:59:19.277Z,2.10
2022-09-14T16:01:46.866Z,1.73
2022-09-14T16:04:14.288Z,1.80
2022-09-14T16:06:41.397Z,2.28
2022-09-14T16:09:10.640Z,2.97
2022-09-14T16:11:38.461Z,2.13
2022-09-14T16:14:06.893Z,1.90
2022-09-14T16:16:35.364Z,1.90
2022-09-14T16:19:11.119Z,2.03
2022-09-14T16:21:38.879Z,1.58
2022-09-14T16:24:08.341Z,1.73
2022-09-14T16:26:37.529Z,2.15
2022-09-14T16:29:06.369Z,2.05
2022-09-14T16:31:37.835Z,1.85
2022-09-14T16:34:07.842Z,1.77
2022-09-14T16:36:37.288Z,1.65
2022-09-14T16:39:06.746Z,1.85
2022-09-14T16:41:33.631Z,1.80
2022-09-14T16:44:03.189Z,2.13
2022-09-14T16:46:31.315Z,1.45
2022-09-14T16:49:01.677Z,1.90
2022-09-14T16:51:30.632Z,1.60
2022-09-14T16:53:59.620Z,2.00
2022-09-14T16:56:30.099Z,2.03
2022-09-14T16:58:57.758Z,2.00
2022-09-14T17:01:29.272Z,1.70
2022-09-14T17:03:58.355Z,1.40
2022-09-14T17:06:28.733Z,1.13
2022-09-14T17:09:00.489Z,1.80
2022-09-14T17:11:29.889Z,1.55
2022-09-14T17:13:57.508Z,1.60
2022-09-14T17:16:26.500Z,1.90
2022-09-14T17:18:56.869Z,1.60
2022-09-14T17:21:32.486Z,2.03
2022-09-14T17:24:00.388Z,1.50
2022-09-14T17:26:27.744Z,1.75
2022-09-14T17:28:56.945Z,1.50
2022-09-14T17:31:26.750Z,1.27
2022-09-14T17:33:54.982Z,1.58
2022-09-14T17:36:22.539Z,2.00
2022-09-14T17:38:50.247Z,1.50
2022-09-14T17:41:22.566Z,1.42
2022-09-14T17:43:54.381Z,1.65
2022-09-14T17:46:24.829Z,1.40
2022-09-14T17:48:52.741Z,1.70
2022-09-14T17:51:25.020Z,2.45
2022-09-14T17:53:57.015Z,2.10
2022-09-14T17:56:27.074Z,1.58
2022-09-14T17:59:10.108Z,1.80
2022-09-14T18:01:37.517Z,1.85
2022-09-14T18:04:10.595Z,1.88
2022-09-14T18:06:40.554Z,1.92
2022-09-14T18:09:14.087Z,1.80
2022-09-14T18:11:41.276Z,2.72
2022-09-14T18:14:13.009Z,1.92
2022-09-14T18:16:41.390Z,1.70
2022-09-14T18:19:17.878Z,2.00
2022-09-14T18:21:48.955Z,1.90
2022-09-14T18:24:19.531Z,1.52
2022-09-14T18:29:34.176Z,2.28
2022-09-14T18:32:02.497Z,2.05
2022-09-14T18:34:29.791Z,1.90
2022-09-14T18:37:00.307Z,1.50
2022-09-14T18:39:27.615Z,1.80
2022-09-14T18:41:59.476Z,2.63
2022-09-14T18:44:28.736Z,2.85
2022-09-14T18:46:56.010Z,2.33
2022-09-14T18:49:23.533Z,1.92
2022-09-14T18:51:51.049Z,2.13
2022-09-14T18:54:19.117Z,2.78
2022-09-14T18:56:46.583Z,1.75
2022-09-14T18:59:15.515Z,2.40
2022-09-14T19:01:44.261Z,1.95
2022-09-14T19:04:12.244Z,2.00
2022-09-14T19:06:41.658Z,1.80
2022-09-14T19:09:09.756Z,2.08
2022-09-14T19:11:37.277Z,1.88
2022-09-14T19:14:10.622Z,1.88
2022-09-14T19:16:40.631Z,1.70
2022-09-14T19:19:09.351Z,2.13
2022-09-14T19:21:39.789Z,1.58
2022-09-14T19:24:12.675Z,2.10
2022-09-14T19:26:45.765Z,1.92
2022-09-14T19:29:20.811Z,2.00
2022-09-14T19:31:51.883Z,1.95
2022-09-14T19:34:23.743Z,2.33
2022-09-14T19:36:51.038Z,2.17
2022-09-14T19:39:21.535Z,2.20
2022-09-14T19:44:22.780Z,2.13
2022-09-14T19:46:50.701Z,1.95
2022-09-14T19:49:26.049Z,2.10
2022-09-14T19:51:54.423Z,1.75
2022-09-14T19:54:25.362Z,1.92
2022-09-14T19:56:52.639Z,2.30
2022-09-14T19:59:22.799Z,2.03
2022-09-14T20:01:53.580Z,2.25
2022-09-14T20:04:24.554Z,1.75
2022-09-14T20:06:52.383Z,2.40
2022-09-14T20:09:23.685Z,2.83
2022-09-14T20:14:25.810Z,2.30
2022-09-14T20:16:59.105Z,2.58
2022-09-14T20:19:29.128Z,2.20
2022-09-14T20:21:58.827Z,2.45
2022-09-14T20:24:28.380Z,2.30
2022-09-14T20:27:00.301Z,2.60
2022-09-14T20:29:31.386Z,2.20
2022-09-14T20:31:59.510Z,2.63
2022-09-14T20:34:26.857Z,2.33
2022-09-14T20:36:54.651Z,2.33
2022-09-14T20:39:25.066Z,1.98
2022-09-14T20:41:56.140Z,1.83
2022-09-14T20:44:26.215Z,1.98
2022-09-14T20:46:57.608Z,2.08
2022-09-14T20:51:57.233Z,2.08
2022-09-14T20:54:24.889Z,2.08
2022-09-14T20:56:52.920Z,2.05
2022-09-14T20:59:23.907Z,2.30
2022-09-14T21:01:52.976Z,1.95
2022-09-14T21:04:29.665Z,2.20
2022-09-14T21:06:57.027Z,1.80
2022-09-14T21:09:26.541Z,1.77
2022-09-14T21:11:54.400Z,1.40
2022-09-14T21:14:22.569Z,1.60
2022-09-14T21:16:55.611Z,2.22
2022-09-14T21:19:25.828Z,1.35
2022-09-14T21:21:53.081Z,1.33
2022-09-14T21:24:22.337Z,1.35
2022-09-14T21:26:49.687Z,1.20
2022-09-14T21:29:21.903Z,1.40
2022-09-14T21:31:49.975Z,1.27
2022-09-14T21:34:18.508Z,1.30
2022-09-14T21:36:49.560Z,1.38
2022-09-14T21:39:23.813Z,0.95
2022-09-14T21:41:58.789Z,1.40
2022-09-14T21:44:36.237Z,1.60
2022-09-14T21:47:04.978Z,1.05
2022-09-14T21:49:32.274Z,1.23
2022-09-14T21:51:59.377Z,1.23
2022-09-14T21:54:26.878Z,1.10
2022-09-14T21:56:57.526Z,1.17
2022-09-14T21:59:26.499Z,1.25
2022-09-14T22:01:54.011Z,1.10
2022-09-14T22:04:24.123Z,1.17
2022-09-14T22:06:52.134Z,1.15
2022-09-14T22:09:22.015Z,1.52
2022-09-14T22:11:49.235Z,1.40
2022-09-14T22:14:24.055Z,1.48
2022-09-14T22:16:51.817Z,1.30
2022-09-14T22:19:24.690Z,1.90
2022-09-14T22:21:52.708Z,1.58
2022-09-14T22:24:26.464Z,1.45
2022-09-14T22:26:54.995Z,1.20
2022-09-14T22:29:22.518Z,1.27
2022-09-14T22:31:50.839Z,1.42
2022-09-14T22:34:18.467Z,1.40
2022-09-14T22:36:45.767Z,1.42
2022-09-14T22:39:14.338Z,1.20
2022-09-14T22:41:41.441Z,1.55
2022-09-14T22:44:09.308Z,1.63
2022-09-14T22:46:36.906Z,1.80
2022-09-14T22:49:06.357Z,1.30
2022-09-14T22:51:33.563Z,1.70
2022-09-14T22:54:01.323Z,1.63
2022-09-14T22:56:34.977Z,2.00
2022-09-14T22:59:04.789Z,2.15
2022-09-14T23:01:34.991Z,2.10
2022-09-14T23:04:05.805Z,1.75
2022-09-14T23:06:36.121Z,2.35
2022-09-14T23:09:04.136Z,2.30
2022-09-14T23:11:31.445Z,1.77
2022-09-14T23:13:59.054Z,1.88
2022-09-14T23:16:28.899Z,2.22
2022-09-14T23:18:58.889Z,2.10
2022-09-14T23:21:27.131Z,2.30
2022-09-14T23:23:56.632Z,1.95
2022-09-14T23:26:24.495Z,1.98
2022-09-14T23:28:53.267Z,1.90
2022-09-14T23:31:20.918Z,1.70
2022-09-14T23:33:52.764Z,1.73
2022-09-14T23:36:21.359Z,1.63
2022-09-14T23:38:51.691Z,1.77
2022-09-14T23:41:21.453Z,1.88
2022-09-14T23:43:48.655Z,2.00
2022-09-14T23:46:16.348Z,1.90
2022-09-14T23:48:44.202Z,2.08
2022-09-14T23:51:12.457Z,1.88
2022-09-14T23:53:40.481Z,1.85
2022-09-14T23:56:08.966Z,1.77
2022-09-14T23:58:36.667Z,2.13
